sensor_id;sensor_type;location;lat;lon;timestamp;temperature;humidity
22006;DHT22;11167;46.988;15.470;2023-08-30T00:01:10;20.10;86.60
22006;DHT22;11167;46.988;15.470;2023-08-30T00:03:12;20.10;86.50
22006;DHT22;11167;46.988;15.470;2023-08-30T00:05:13;20.10;86.50
22006;DHT22;11167;46.988;15.470;2023-08-30T00:07:14;20.10;86.50
22006;DHT22;11167;46.988;15.470;2023-08-30T00:09:15;20.00;86.50
22006;DHT22;11167;46.988;15.470;2023-08-30T00:11:16;20.10;86.60
22006;DHT22;11167;46.988;15.470;2023-08-30T00:13:17;20.00;86.50
22006;DHT22;11167;46.988;15.470;2023-08-30T00:15:19;20.00;86.50
22006;DHT22;11167;46.988;15.470;2023-08-30T00:17:19;20.00;86.50
22006;DHT22;11167;46.988;15.470;2023-08-30T00:19:20;20.00;86.60
22006;DHT22;11167;46.988;15.470;2023-08-30T00:21:21;20.00;86.60
22006;DHT22;11167;46.988;15.470;2023-08-30T00:23:23;20.00;86.60
22006;DHT22;11167;46.988;15.470;2023-08-30T00:25:23;20.00;86.60
22006;DHT22;11167;46.988;15.470;2023-08-30T00:27:24;20.00;86.60
22006;DHT22;11167;46.988;15.470;2023-08-30T00:29:25;20.00;86.60
22006;DHT22;11167;46.988;15.470;2023-08-30T00:31:26;20.00;86.60
22006;DHT22;11167;46.988;15.470;2023-08-30T00:33:27;20.00;86.60
22006;DHT22;11167;46.988;15.470;2023-08-30T00:35:27;20.00;86.70
22006;DHT22;11167;46.988;15.470;2023-08-30T00:37:30;20.00;86.70
22006;DHT22;11167;46.988;15.470;2023-08-30T00:39:30;20.00;86.70
22006;DHT22;11167;46.988;15.470;2023-08-30T00:41:31;20.00;86.70
22006;DHT22;11167;46.988;15.470;2023-08-30T00:43:32;20.00;86.70
22006;DHT22;11167;46.988;15.470;2023-08-30T00:45:33;20.00;86.70
22006;DHT22;11167;46.988;15.470;2023-08-30T00:47:36;20.00;86.70
22006;DHT22;11167;46.988;15.470;2023-08-30T00:49:38;20.00;86.70
22006;DHT22;11167;46.988;15.470;2023-08-30T00:51:40;20.00;86.70
22006;DHT22;11167;46.988;15.470;2023-08-30T00:53:41;20.00;86.80
22006;DHT22;11167;46.988;15.470;2023-08-30T00:55:42;20.00;86.80
22006;DHT22;11167;46.988;15.470;2023-08-30T00:57:43;20.00;86.80
22006;DHT22;11167;46.988;15.470;2023-08-30T00:59:44;20.00;86.90
22006;DHT22;11167;46.988;15.470;2023-08-30T01:01:45;20.00;87.00
22006;DHT22;11167;46.988;15.470;2023-08-30T01:03:46;19.90;86.80
22006;DHT22;11167;46.988;15.470;2023-08-30T01:05:47;19.90;86.80
22006;DHT22;11167;46.988;15.470;2023-08-30T01:07:48;20.00;86.90
22006;DHT22;11167;46.988;15.470;2023-08-30T01:09:49;19.90;86.90
22006;DHT22;11167;46.988;15.470;2023-08-30T01:12:04;19.90;86.90
22006;DHT22;11167;46.988;15.470;2023-08-30T01:16:08;19.90;86.90
22006;DHT22;11167;46.988;15.470;2023-08-30T01:18:10;19.90;86.90
22006;DHT22;11167;46.988;15.470;2023-08-30T01:20:11;19.90;86.90
22006;DHT22;11167;46.988;15.470;2023-08-30T01:22:29;19.90;87.10
22006;DHT22;11167;46.988;15.470;2023-08-30T01:24:26;19.90;87.00
22006;DHT22;11167;46.988;15.470;2023-08-30T01:28:33;19.90;87.00
22006;DHT22;11167;46.988;15.470;2023-08-30T01:30:34;19.90;87.10
22006;DHT22;11167;46.988;15.470;2023-08-30T01:32:38;19.90;87.10
22006;DHT22;11167;46.988;15.470;2023-08-30T01:34:39;19.90;87.10
22006;DHT22;11167;46.988;15.470;2023-08-30T01:36:40;19.90;87.10
22006;DHT22;11167;46.988;15.470;2023-08-30T01:38:42;19.90;87.10
22006;DHT22;11167;46.988;15.470;2023-08-30T01:40:44;19.90;87.30
22006;DHT22;11167;46.988;15.470;2023-08-30T01:42:45;19.90;87.10
22006;DHT22;11167;46.988;15.470;2023-08-30T01:44:46;19.80;87.20
22006;DHT22;11167;46.988;15.470;2023-08-30T01:46:47;19.90;87.20
22006;DHT22;11167;46.988;15.470;2023-08-30T01:48:49;19.90;87.10
22006;DHT22;11167;46.988;15.470;2023-08-30T01:50:50;19.80;87.20
22006;DHT22;11167;46.988;15.470;2023-08-30T01:52:51;19.80;87.00
22006;DHT22;11167;46.988;15.470;2023-08-30T01:54:52;19.80;87.10
22006;DHT22;11167;46.988;15.470;2023-08-30T01:56:54;19.80;87.10
22006;DHT22;11167;46.988;15.470;2023-08-30T01:58:54;19.80;87.20
22006;DHT22;11167;46.988;15.470;2023-08-30T02:00:55;19.80;87.10
22006;DHT22;11167;46.988;15.470;2023-08-30T02:02:57;19.80;87.20
22006;DHT22;11167;46.988;15.470;2023-08-30T02:04:57;19.80;87.20
22006;DHT22;11167;46.988;15.470;2023-08-30T02:07:03;19.80;87.20
22006;DHT22;11167;46.988;15.470;2023-08-30T02:09:14;19.80;87.20
22006;DHT22;11167;46.988;15.470;2023-08-30T02:11:21;19.80;87.20
22006;DHT22;11167;46.988;15.470;2023-08-30T02:13:25;19.80;87.20
22006;DHT22;11167;46.988;15.470;2023-08-30T02:15:25;19.80;87.20
22006;DHT22;11167;46.988;15.470;2023-08-30T02:17:26;19.80;87.30
22006;DHT22;11167;46.988;15.470;2023-08-30T02:19:27;19.80;87.30
22006;DHT22;11167;46.988;15.470;2023-08-30T02:21:28;19.80;87.20
22006;DHT22;11167;46.988;15.470;2023-08-30T02:23:29;19.80;87.20
22006;DHT22;11167;46.988;15.470;2023-08-30T02:25:30;19.80;87.20
22006;DHT22;11167;46.988;15.470;2023-08-30T02:27:31;19.70;87.20
22006;DHT22;11167;46.988;15.470;2023-08-30T02:29:32;19.70;87.20
22006;DHT22;11167;46.988;15.470;2023-08-30T02:31:33;19.70;87.20
22006;DHT22;11167;46.988;15.470;2023-08-30T02:33:34;19.70;87.20
22006;DHT22;11167;46.988;15.470;2023-08-30T02:35:35;19.70;87.20
22006;DHT22;11167;46.988;15.470;2023-08-30T02:37:36;19.70;87.20
22006;DHT22;11167;46.988;15.470;2023-08-30T02:39:37;19.70;87.20
22006;DHT22;11167;46.988;15.470;2023-08-30T02:41:38;19.80;87.20
22006;DHT22;11167;46.988;15.470;2023-08-30T02:43:40;19.70;87.20
22006;DHT22;11167;46.988;15.470;2023-08-30T02:45:41;19.70;87.20
22006;DHT22;11167;46.988;15.470;2023-08-30T02:47:44;19.70;87.20
22006;DHT22;11167;46.988;15.470;2023-08-30T02:49:44;19.70;87.20
22006;DHT22;11167;46.988;15.470;2023-08-30T02:51:45;19.70;87.20
22006;DHT22;11167;46.988;15.470;2023-08-30T02:53:46;19.70;87.20
22006;DHT22;11167;46.988;15.470;2023-08-30T02:55:47;19.70;87.20
22006;DHT22;11167;46.988;15.470;2023-08-30T02:57:48;19.70;87.20
22006;DHT22;11167;46.988;15.470;2023-08-30T02:59:49;19.70;87.30
22006;DHT22;11167;46.988;15.470;2023-08-30T03:01:50;19.70;87.20
22006;DHT22;11167;46.988;15.470;2023-08-30T03:03:54;19.70;87.30
22006;DHT22;11167;46.988;15.470;2023-08-30T03:05:55;19.70;87.40
22006;DHT22;11167;46.988;15.470;2023-08-30T03:07:55;19.70;87.40
22006;DHT22;11167;46.988;15.470;2023-08-30T03:09:56;19.70;87.40
22006;DHT22;11167;46.988;15.470;2023-08-30T03:11:57;19.70;87.40
22006;DHT22;11167;46.988;15.470;2023-08-30T03:13:58;19.70;87.40
22006;DHT22;11167;46.988;15.470;2023-08-30T03:15:59;19.70;87.40
22006;DHT22;11167;46.988;15.470;2023-08-30T03:18:00;19.70;87.50
22006;DHT22;11167;46.988;15.470;2023-08-30T03:20:01;19.60;87.40
22006;DHT22;11167;46.988;15.470;2023-08-30T03:22:04;19.70;87.50
22006;DHT22;11167;46.988;15.470;2023-08-30T03:24:05;19.60;87.50
22006;DHT22;11167;46.988;15.470;2023-08-30T03:26:09;19.60;87.40
22006;DHT22;11167;46.988;15.470;2023-08-30T03:28:10;19.70;87.60
22006;DHT22;11167;46.988;15.470;2023-08-30T03:30:11;19.70;87.60
22006;DHT22;11167;46.988;15.470;2023-08-30T03:32:17;19.70;87.60
22006;DHT22;11167;46.988;15.470;2023-08-30T03:34:15;19.60;87.60
22006;DHT22;11167;46.988;15.470;2023-08-30T03:36:16;19.60;87.50
22006;DHT22;11167;46.988;15.470;2023-08-30T03:38:17;19.60;87.60
22006;DHT22;11167;46.988;15.470;2023-08-30T03:40:18;19.60;87.60
22006;DHT22;11167;46.988;15.470;2023-08-30T03:42:19;19.60;87.60
22006;DHT22;11167;46.988;15.470;2023-08-30T03:44:20;19.60;87.60
22006;DHT22;11167;46.988;15.470;2023-08-30T03:46:21;19.60;87.60
22006;DHT22;11167;46.988;15.470;2023-08-30T03:48:21;19.60;87.60
22006;DHT22;11167;46.988;15.470;2023-08-30T03:50:22;19.60;87.60
22006;DHT22;11167;46.988;15.470;2023-08-30T03:52:23;19.60;87.60
22006;DHT22;11167;46.988;15.470;2023-08-30T03:54:24;19.60;87.60
22006;DHT22;11167;46.988;15.470;2023-08-30T03:56:25;19.60;87.60
22006;DHT22;11167;46.988;15.470;2023-08-30T03:58:25;19.60;87.70
22006;DHT22;11167;46.988;15.470;2023-08-30T04:00:26;19.60;87.70
22006;DHT22;11167;46.988;15.470;2023-08-30T04:02:27;19.60;87.70
22006;DHT22;11167;46.988;15.470;2023-08-30T04:04:31;19.60;87.70
22006;DHT22;11167;46.988;15.470;2023-08-30T04:06:32;19.60;87.80
22006;DHT22;11167;46.988;15.470;2023-08-30T04:08:32;19.60;87.70
22006;DHT22;11167;46.988;15.470;2023-08-30T04:10:41;19.60;87.70
22006;DHT22;11167;46.988;15.470;2023-08-30T04:12:43;19.60;87.80
22006;DHT22;11167;46.988;15.470;2023-08-30T04:14:44;19.60;88.10
22006;DHT22;11167;46.988;15.470;2023-08-30T04:16:45;19.60;87.80
22006;DHT22;11167;46.988;15.470;2023-08-30T04:18:46;19.60;87.80
22006;DHT22;11167;46.988;15.470;2023-08-30T04:20:47;19.60;87.80
22006;DHT22;11167;46.988;15.470;2023-08-30T04:22:48;19.50;87.80
22006;DHT22;11167;46.988;15.470;2023-08-30T04:24:49;19.50;87.80
22006;DHT22;11167;46.988;15.470;2023-08-30T04:26:50;19.50;87.80
22006;DHT22;11167;46.988;15.470;2023-08-30T04:28:52;19.50;87.80
22006;DHT22;11167;46.988;15.470;2023-08-30T04:30:54;19.50;87.80
22006;DHT22;11167;46.988;15.470;2023-08-30T04:32:55;19.50;87.80
22006;DHT22;11167;46.988;15.470;2023-08-30T04:34:56;19.50;87.80
22006;DHT22;11167;46.988;15.470;2023-08-30T04:36:57;19.50;87.80
22006;DHT22;11167;46.988;15.470;2023-08-30T04:38:57;19.50;87.80
22006;DHT22;11167;46.988;15.470;2023-08-30T04:40:58;19.50;87.80
22006;DHT22;11167;46.988;15.470;2023-08-30T04:43:03;19.50;87.80
22006;DHT22;11167;46.988;15.470;2023-08-30T04:45:04;19.50;87.90
22006;DHT22;11167;46.988;15.470;2023-08-30T04:47:05;19.50;87.90
22006;DHT22;11167;46.988;15.470;2023-08-30T04:49:06;19.50;88.00
22006;DHT22;11167;46.988;15.470;2023-08-30T04:51:07;19.50;88.00
22006;DHT22;11167;46.988;15.470;2023-08-30T04:53:07;19.50;88.00
22006;DHT22;11167;46.988;15.470;2023-08-30T04:55:13;19.50;88.90
22006;DHT22;11167;46.988;15.470;2023-08-30T04:57:26;19.50;88.00
22006;DHT22;11167;46.988;15.470;2023-08-30T04:59:26;19.40;88.00
22006;DHT22;11167;46.988;15.470;2023-08-30T05:01:32;19.40;88.00
22006;DHT22;11167;46.988;15.470;2023-08-30T05:03:32;19.50;88.10
22006;DHT22;11167;46.988;15.470;2023-08-30T05:05:33;19.50;88.10
22006;DHT22;11167;46.988;15.470;2023-08-30T05:07:35;19.50;88.20
22006;DHT22;11167;46.988;15.470;2023-08-30T05:09:36;19.50;88.20
22006;DHT22;11167;46.988;15.470;2023-08-30T05:11:37;19.50;88.20
22006;DHT22;11167;46.988;15.470;2023-08-30T05:13:38;19.50;88.20
22006;DHT22;11167;46.988;15.470;2023-08-30T05:15:39;19.50;88.20
22006;DHT22;11167;46.988;15.470;2023-08-30T05:17:40;19.50;88.20
22006;DHT22;11167;46.988;15.470;2023-08-30T05:19:41;19.50;88.20
22006;DHT22;11167;46.988;15.470;2023-08-30T05:21:45;19.50;88.20
22006;DHT22;11167;46.988;15.470;2023-08-30T05:23:46;19.50;88.20
22006;DHT22;11167;46.988;15.470;2023-08-30T05:25:48;19.50;88.20
22006;DHT22;11167;46.988;15.470;2023-08-30T05:27:49;19.40;88.20
22006;DHT22;11167;46.988;15.470;2023-08-30T05:29:50;19.50;88.20
22006;DHT22;11167;46.988;15.470;2023-08-30T05:31:51;19.40;88.20
22006;DHT22;11167;46.988;15.470;2023-08-30T05:33:52;19.40;88.20
22006;DHT22;11167;46.988;15.470;2023-08-30T05:35:52;19.40;88.20
22006;DHT22;11167;46.988;15.470;2023-08-30T05:37:53;19.50;88.20
22006;DHT22;11167;46.988;15.470;2023-08-30T05:39:54;19.40;88.20
22006;DHT22;11167;46.988;15.470;2023-08-30T05:41:55;19.40;88.20
22006;DHT22;11167;46.988;15.470;2023-08-30T05:43:56;19.40;88.20
22006;DHT22;11167;46.988;15.470;2023-08-30T05:45:57;19.40;88.20
22006;DHT22;11167;46.988;15.470;2023-08-30T05:47:59;19.40;88.20
22006;DHT22;11167;46.988;15.470;2023-08-30T05:50:00;19.40;88.20
22006;DHT22;11167;46.988;15.470;2023-08-30T05:52:05;19.40;88.30
22006;DHT22;11167;46.988;15.470;2023-08-30T05:54:04;19.40;88.20
22006;DHT22;11167;46.988;15.470;2023-08-30T05:56:05;19.40;88.30
22006;DHT22;11167;46.988;15.470;2023-08-30T05:58:06;19.40;88.30
22006;DHT22;11167;46.988;15.470;2023-08-30T06:00:07;19.40;88.30
22006;DHT22;11167;46.988;15.470;2023-08-30T06:02:09;19.40;88.30
22006;DHT22;11167;46.988;15.470;2023-08-30T06:04:10;19.40;88.30
22006;DHT22;11167;46.988;15.470;2023-08-30T06:06:11;19.40;88.30
22006;DHT22;11167;46.988;15.470;2023-08-30T06:08:12;19.40;88.30
22006;DHT22;11167;46.988;15.470;2023-08-30T06:10:13;19.40;88.30
22006;DHT22;11167;46.988;15.470;2023-08-30T06:12:14;19.40;88.30
22006;DHT22;11167;46.988;15.470;2023-08-30T06:14:15;19.40;88.30
22006;DHT22;11167;46.988;15.470;2023-08-30T06:16:16;19.40;88.30
22006;DHT22;11167;46.988;15.470;2023-08-30T06:18:18;19.40;88.30
22006;DHT22;11167;46.988;15.470;2023-08-30T06:20:19;19.40;88.30
22006;DHT22;11167;46.988;15.470;2023-08-30T06:22:20;19.40;88.30
22006;DHT22;11167;46.988;15.470;2023-08-30T06:24:21;19.40;88.30
22006;DHT22;11167;46.988;15.470;2023-08-30T06:26:25;19.40;89.20
22006;DHT22;11167;46.988;15.470;2023-08-30T06:28:26;19.40;89.20
22006;DHT22;11167;46.988;15.470;2023-08-30T06:30:27;19.40;88.30
22006;DHT22;11167;46.988;15.470;2023-08-30T06:32:29;19.40;88.40
22006;DHT22;11167;46.988;15.470;2023-08-30T06:34:30;19.40;88.40
22006;DHT22;11167;46.988;15.470;2023-08-30T06:36:31;19.30;88.30
22006;DHT22;11167;46.988;15.470;2023-08-30T06:38:32;19.30;88.30
22006;DHT22;11167;46.988;15.470;2023-08-30T06:40:33;19.30;88.40
22006;DHT22;11167;46.988;15.470;2023-08-30T06:42:34;19.30;88.40
22006;DHT22;11167;46.988;15.470;2023-08-30T06:44:35;19.30;88.40
22006;DHT22;11167;46.988;15.470;2023-08-30T06:46:36;19.40;88.50
22006;DHT22;11167;46.988;15.470;2023-08-30T06:48:38;19.30;88.50
22006;DHT22;11167;46.988;15.470;2023-08-30T06:50:39;19.30;88.50
22006;DHT22;11167;46.988;15.470;2023-08-30T06:52:39;19.30;88.50
22006;DHT22;11167;46.988;15.470;2023-08-30T06:54:41;19.30;88.50
22006;DHT22;11167;46.988;15.470;2023-08-30T06:56:45;19.30;88.50
22006;DHT22;11167;46.988;15.470;2023-08-30T06:58:50;19.30;88.50
22006;DHT22;11167;46.988;15.470;2023-08-30T07:00:53;19.30;87.90
22006;DHT22;11167;46.988;15.470;2023-08-30T07:02:54;19.30;88.50
22006;DHT22;11167;46.988;15.470;2023-08-30T07:04:58;19.30;88.50
22006;DHT22;11167;46.988;15.470;2023-08-30T07:06:58;19.30;88.50
22006;DHT22;11167;46.988;15.470;2023-08-30T07:08:59;19.30;88.50
22006;DHT22;11167;46.988;15.470;2023-08-30T07:11:02;19.30;88.50
22006;DHT22;11167;46.988;15.470;2023-08-30T07:13:03;19.30;89.50
22006;DHT22;11167;46.988;15.470;2023-08-30T07:15:05;19.40;88.70
22006;DHT22;11167;46.988;15.470;2023-08-30T07:17:06;19.30;88.60
22006;DHT22;11167;46.988;15.470;2023-08-30T07:19:07;19.30;88.60
22006;DHT22;11167;46.988;15.470;2023-08-30T07:21:10;19.30;88.60
22006;DHT22;11167;46.988;15.470;2023-08-30T07:23:11;19.30;88.60
22006;DHT22;11167;46.988;15.470;2023-08-30T07:25:11;19.30;88.50
22006;DHT22;11167;46.988;15.470;2023-08-30T07:27:14;19.30;88.50
22006;DHT22;11167;46.988;15.470;2023-08-30T07:29:15;19.30;88.00
22006;DHT22;11167;46.988;15.470;2023-08-30T07:31:16;19.30;88.50
22006;DHT22;11167;46.988;15.470;2023-08-30T07:33:18;19.30;88.50
22006;DHT22;11167;46.988;15.470;2023-08-30T07:35:19;19.30;88.50
22006;DHT22;11167;46.988;15.470;2023-08-30T07:37:20;19.30;88.50
22006;DHT22;11167;46.988;15.470;2023-08-30T07:39:21;19.30;88.60
22006;DHT22;11167;46.988;15.470;2023-08-30T07:41:22;19.30;88.60
22006;DHT22;11167;46.988;15.470;2023-08-30T07:43:23;19.30;88.60
22006;DHT22;11167;46.988;15.470;2023-08-30T07:45:26;19.30;88.60
22006;DHT22;11167;46.988;15.470;2023-08-30T07:47:27;19.30;88.60
22006;DHT22;11167;46.988;15.470;2023-08-30T07:49:28;19.30;88.50
22006;DHT22;11167;46.988;15.470;2023-08-30T07:51:29;19.30;88.50
22006;DHT22;11167;46.988;15.470;2023-08-30T07:53:30;19.30;88.50
22006;DHT22;11167;46.988;15.470;2023-08-30T07:55:31;19.30;88.50
22006;DHT22;11167;46.988;15.470;2023-08-30T07:57:31;19.30;88.50
22006;DHT22;11167;46.988;15.470;2023-08-30T07:59:33;19.30;88.50
22006;DHT22;11167;46.988;15.470;2023-08-30T08:01:34;19.40;88.60
22006;DHT22;11167;46.988;15.470;2023-08-30T08:03:35;19.40;88.60
22006;DHT22;11167;46.988;15.470;2023-08-30T08:05:36;19.30;88.60
22006;DHT22;11167;46.988;15.470;2023-08-30T08:07:38;19.40;88.70
22006;DHT22;11167;46.988;15.470;2023-08-30T08:09:39;19.30;88.60
22006;DHT22;11167;46.988;15.470;2023-08-30T08:11:40;19.30;88.50
22006;DHT22;11167;46.988;15.470;2023-08-30T08:13:42;19.40;88.60
22006;DHT22;11167;46.988;15.470;2023-08-30T08:15:43;19.30;88.50
22006;DHT22;11167;46.988;15.470;2023-08-30T08:17:44;19.30;88.50
22006;DHT22;11167;46.988;15.470;2023-08-30T08:19:45;19.40;88.70
22006;DHT22;11167;46.988;15.470;2023-08-30T08:21:46;19.40;88.60
22006;DHT22;11167;46.988;15.470;2023-08-30T08:23:47;19.40;88.50
22006;DHT22;11167;46.988;15.470;2023-08-30T08:25:56;19.40;88.50
22006;DHT22;11167;46.988;15.470;2023-08-30T08:27:52;19.40;88.50
22006;DHT22;11167;46.988;15.470;2023-08-30T08:29:53;19.30;88.50
22006;DHT22;11167;46.988;15.470;2023-08-30T08:31:54;19.40;88.50
22006;DHT22;11167;46.988;15.470;2023-08-30T08:34:11;19.40;88.50
22006;DHT22;11167;46.988;15.470;2023-08-30T08:36:12;19.40;88.50
22006;DHT22;11167;46.988;15.470;2023-08-30T08:38:17;19.40;88.50
22006;DHT22;11167;46.988;15.470;2023-08-30T08:40:16;19.40;88.50
22006;DHT22;11167;46.988;15.470;2023-08-30T08:42:21;19.40;88.50
22006;DHT22;11167;46.988;15.470;2023-08-30T08:44:20;19.40;88.50
22006;DHT22;11167;46.988;15.470;2023-08-30T08:46:22;19.40;88.50
22006;DHT22;11167;46.988;15.470;2023-08-30T08:48:23;19.40;88.50
22006;DHT22;11167;46.988;15.470;2023-08-30T08:50:25;19.40;88.50
22006;DHT22;11167;46.988;15.470;2023-08-30T08:52:26;19.40;88.60
22006;DHT22;11167;46.988;15.470;2023-08-30T08:54:27;19.40;88.50
22006;DHT22;11167;46.988;15.470;2023-08-30T08:56:28;19.40;88.50
22006;DHT22;11167;46.988;15.470;2023-08-30T08:58:30;19.40;88.50
22006;DHT22;11167;46.988;15.470;2023-08-30T09:00:31;19.40;88.50
22006;DHT22;11167;46.988;15.470;2023-08-30T09:02:32;19.40;88.50
22006;DHT22;11167;46.988;15.470;2023-08-30T09:04:33;19.40;88.50
22006;DHT22;11167;46.988;15.470;2023-08-30T09:06:34;19.40;88.50
22006;DHT22;11167;46.988;15.470;2023-08-30T09:08:36;19.40;88.40
22006;DHT22;11167;46.988;15.470;2023-08-30T09:10:37;19.40;88.30
22006;DHT22;11167;46.988;15.470;2023-08-30T09:12:38;19.40;88.30
22006;DHT22;11167;46.988;15.470;2023-08-30T09:14:39;19.40;88.30
22006;DHT22;11167;46.988;15.470;2023-08-30T09:16:40;19.40;88.40
22006;DHT22;11167;46.988;15.470;2023-08-30T09:18:41;19.40;88.30
22006;DHT22;11167;46.988;15.470;2023-08-30T09:20:42;19.40;88.30
22006;DHT22;11167;46.988;15.470;2023-08-30T09:22:43;19.40;88.30
22006;DHT22;11167;46.988;15.470;2023-08-30T09:24:44;19.40;88.30
22006;DHT22;11167;46.988;15.470;2023-08-30T09:26:51;19.40;88.30
22006;DHT22;11167;46.988;15.470;2023-08-30T09:28:52;19.50;88.20
22006;DHT22;11167;46.988;15.470;2023-08-30T09:30:53;19.50;88.20
22006;DHT22;11167;46.988;15.470;2023-08-30T09:33:00;19.40;88.10
22006;DHT22;11167;46.988;15.470;2023-08-30T09:34:58;19.50;88.10
22006;DHT22;11167;46.988;15.470;2023-08-30T09:36:58;19.40;88.20
22006;DHT22;11167;46.988;15.470;2023-08-30T09:39:07;19.50;88.90
22006;DHT22;11167;46.988;15.470;2023-08-30T09:41:06;19.50;88.00
22006;DHT22;11167;46.988;15.470;2023-08-30T09:43:07;19.50;88.10
22006;DHT22;11167;46.988;15.470;2023-08-30T09:45:23;19.40;87.90
22006;DHT22;11167;46.988;15.470;2023-08-30T09:47:24;19.50;87.80
22006;DHT22;11167;46.988;15.470;2023-08-30T09:49:27;19.40;87.80
22006;DHT22;11167;46.988;15.470;2023-08-30T09:51:29;19.50;87.80
22006;DHT22;11167;46.988;15.470;2023-08-30T09:53:30;19.50;87.90
22006;DHT22;11167;46.988;15.470;2023-08-30T09:55:33;19.40;87.80
22006;DHT22;11167;46.988;15.470;2023-08-30T09:57:34;19.40;87.80
22006;DHT22;11167;46.988;15.470;2023-08-30T09:59:35;19.50;87.80
22006;DHT22;11167;46.988;15.470;2023-08-30T10:01:38;19.50;87.80
22006;DHT22;11167;46.988;15.470;2023-08-30T10:03:40;19.50;87.80
22006;DHT22;11167;46.988;15.470;2023-08-30T10:05:43;19.50;87.90
22006;DHT22;11167;46.988;15.470;2023-08-30T10:07:45;19.50;87.90
22006;DHT22;11167;46.988;15.470;2023-08-30T10:09:46;19.50;87.90
22006;DHT22;11167;46.988;15.470;2023-08-30T10:11:48;19.50;87.70
22006;DHT22;11167;46.988;15.470;2023-08-30T10:13:51;19.50;87.70
22006;DHT22;11167;46.988;15.470;2023-08-30T10:15:53;19.50;87.50
22006;DHT22;11167;46.988;15.470;2023-08-30T10:17:55;19.50;87.50
22006;DHT22;11167;46.988;15.470;2023-08-30T10:19:58;19.60;87.60
22006;DHT22;11167;46.988;15.470;2023-08-30T10:22:21;19.50;87.50
22006;DHT22;11167;46.988;15.470;2023-08-30T10:24:22;19.50;87.40
22006;DHT22;11167;46.988;15.470;2023-08-30T10:26:24;19.60;87.50
22006;DHT22;11167;46.988;15.470;2023-08-30T10:28:26;19.60;87.60
22006;DHT22;11167;46.988;15.470;2023-08-30T10:30:28;19.60;87.60
22006;DHT22;11167;46.988;15.470;2023-08-30T10:32:29;19.60;87.50
22006;DHT22;11167;46.988;15.470;2023-08-30T10:34:32;19.60;87.40
22006;DHT22;11167;46.988;15.470;2023-08-30T10:36:36;19.60;87.50
22006;DHT22;11167;46.988;15.470;2023-08-30T10:38:37;19.60;87.30
22006;DHT22;11167;46.988;15.470;2023-08-30T10:40:47;19.60;87.30
22006;DHT22;11167;46.988;15.470;2023-08-30T10:43:00;19.60;87.20
22006;DHT22;11167;46.988;15.470;2023-08-30T10:45:01;19.60;87.20
22006;DHT22;11167;46.988;15.470;2023-08-30T10:47:04;19.70;87.20
22006;DHT22;11167;46.988;15.470;2023-08-30T10:49:08;19.60;87.10
22006;DHT22;11167;46.988;15.470;2023-08-30T10:51:20;19.70;87.20
22006;DHT22;11167;46.988;15.470;2023-08-30T10:53:28;19.60;87.10
22006;DHT22;11167;46.988;15.470;2023-08-30T10:55:24;19.70;87.70
22006;DHT22;11167;46.988;15.470;2023-08-30T10:57:25;19.60;87.20
22006;DHT22;11167;46.988;15.470;2023-08-30T10:59:26;19.70;87.10
22006;DHT22;11167;46.988;15.470;2023-08-30T11:01:27;19.70;87.10
22006;DHT22;11167;46.988;15.470;2023-08-30T11:03:29;19.70;87.10
22006;DHT22;11167;46.988;15.470;2023-08-30T11:05:31;19.70;87.10
22006;DHT22;11167;46.988;15.470;2023-08-30T11:07:32;19.70;87.00
22006;DHT22;11167;46.988;15.470;2023-08-30T11:09:32;19.70;87.00
22006;DHT22;11167;46.988;15.470;2023-08-30T11:11:34;19.70;86.90
22006;DHT22;11167;46.988;15.470;2023-08-30T11:13:36;19.80;87.00
22006;DHT22;11167;46.988;15.470;2023-08-30T11:15:37;19.80;87.00
22006;DHT22;11167;46.988;15.470;2023-08-30T11:17:38;19.80;87.00
22006;DHT22;11167;46.988;15.470;2023-08-30T11:19:40;19.80;87.00
22006;DHT22;11167;46.988;15.470;2023-08-30T11:21:43;19.80;87.00
22006;DHT22;11167;46.988;15.470;2023-08-30T11:23:44;19.80;87.00
22006;DHT22;11167;46.988;15.470;2023-08-30T11:25:49;19.80;86.90
22006;DHT22;11167;46.988;15.470;2023-08-30T11:27:48;19.80;86.90
22006;DHT22;11167;46.988;15.470;2023-08-30T11:29:49;19.80;86.90
22006;DHT22;11167;46.988;15.470;2023-08-30T11:31:50;19.90;86.90
22006;DHT22;11167;46.988;15.470;2023-08-30T11:34:00;19.90;87.00
22006;DHT22;11167;46.988;15.470;2023-08-30T11:35:55;19.90;87.00
22006;DHT22;11167;46.988;15.470;2023-08-30T11:37:57;19.90;87.10
22006;DHT22;11167;46.988;15.470;2023-08-30T11:40:00;19.90;87.10
22006;DHT22;11167;46.988;15.470;2023-08-30T11:42:02;20.00;87.10
22006;DHT22;11167;46.988;15.470;2023-08-30T11:44:04;19.90;87.10
22006;DHT22;11167;46.988;15.470;2023-08-30T11:46:05;20.00;87.10
22006;DHT22;11167;46.988;15.470;2023-08-30T11:48:06;20.00;87.00
22006;DHT22;11167;46.988;15.470;2023-08-30T11:50:07;20.00;87.00
22006;DHT22;11167;46.988;15.470;2023-08-30T11:52:09;20.00;87.00
22006;DHT22;11167;46.988;15.470;2023-08-30T11:54:10;20.00;87.10
22006;DHT22;11167;46.988;15.470;2023-08-30T11:56:11;20.00;86.90
22006;DHT22;11167;46.988;15.470;2023-08-30T11:58:12;20.00;86.90
22006;DHT22;11167;46.988;15.470;2023-08-30T12:00:13;20.10;87.10
22006;DHT22;11167;46.988;15.470;2023-08-30T12:02:14;20.10;87.10
22006;DHT22;11167;46.988;15.470;2023-08-30T12:04:16;20.10;87.10
22006;DHT22;11167;46.988;15.470;2023-08-30T12:06:18;20.10;87.20
22006;DHT22;11167;46.988;15.470;2023-08-30T12:08:27;20.10;87.20
22006;DHT22;11167;46.988;15.470;2023-08-30T12:10:28;20.10;87.10
22006;DHT22;11167;46.988;15.470;2023-08-30T12:12:29;20.20;87.30
22006;DHT22;11167;46.988;15.470;2023-08-30T12:14:34;20.20;87.20
22006;DHT22;11167;46.988;15.470;2023-08-30T12:16:35;20.20;87.20
22006;DHT22;11167;46.988;15.470;2023-08-30T12:18:36;20.20;87.30
22006;DHT22;11167;46.988;15.470;2023-08-30T12:20:39;20.20;87.20
22006;DHT22;11167;46.988;15.470;2023-08-30T12:22:39;20.20;87.20
22006;DHT22;11167;46.988;15.470;2023-08-30T12:24:44;20.30;87.30
22006;DHT22;11167;46.988;15.470;2023-08-30T12:26:45;20.30;87.30
22006;DHT22;11167;46.988;15.470;2023-08-30T12:28:46;20.30;87.30
22006;DHT22;11167;46.988;15.470;2023-08-30T12:30:47;20.30;87.30
22006;DHT22;11167;46.988;15.470;2023-08-30T12:32:48;20.30;87.30
22006;DHT22;11167;46.988;15.470;2023-08-30T12:34:49;20.30;87.30
22006;DHT22;11167;46.988;15.470;2023-08-30T12:36:49;20.30;87.30
22006;DHT22;11167;46.988;15.470;2023-08-30T12:38:51;20.30;87.20
22006;DHT22;11167;46.988;15.470;2023-08-30T12:40:53;20.40;87.20